sensor_id;sensor_type;location;lat;lon;timestamp;temperature;humidity
72126;SHT31;59999;51.676;22.650;2023-02-28T00:01:21;-0.62;65.29
72126;SHT31;59999;51.676;22.650;2023-02-28T00:03:48;-0.62;65.07
72126;SHT31;59999;51.676;22.650;2023-02-28T00:06:14;-0.64;65.24
72126;SHT31;59999;51.676;22.650;2023-02-28T00:08:40;-0.66;65.27
72126;SHT31;59999;51.676;22.650;2023-02-28T00:11:08;-0.68;66.04
72126;SHT31;59999;51.676;22.650;2023-02-28T00:13:38;-0.69;66.11
72126;SHT31;59999;51.676;22.650;2023-02-28T00:16:07;-0.66;66.17
72126;SHT31;59999;51.676;22.650;2023-02-28T00:18:35;-0.65;66.34
72126;SHT31;59999;51.676;22.650;2023-02-28T00:21:01;-0.64;65.16
72126;SHT31;59999;51.676;22.650;2023-02-28T00:23:29;-0.65;64.23
72126;SHT31;59999;51.676;22.650;2023-02-28T00:25:55;-0.75;63.68
72126;SHT31;59999;51.676;22.650;2023-02-28T00:28:21;-0.78;63.70
72126;SHT31;59999;51.676;22.650;2023-02-28T00:30:47;-0.78;64.06
72126;SHT31;59999;51.676;22.650;2023-02-28T00:33:14;-0.75;64.03
72126;SHT31;59999;51.676;22.650;2023-02-28T00:35:40;-0.74;64.14
72126;SHT31;59999;51.676;22.650;2023-02-28T00:38:06;-0.71;63.79
72126;SHT31;59999;51.676;22.650;2023-02-28T00:40:32;-0.75;63.83
72126;SHT31;59999;51.676;22.650;2023-02-28T00:42:58;-0.71;64.00
72126;SHT31;59999;51.676;22.650;2023-02-28T00:45:24;-0.75;64.01
72126;SHT31;59999;51.676;22.650;2023-02-28T00:47:50;-0.76;63.99
72126;SHT31;59999;51.676;22.650;2023-02-28T00:50:19;-0.81;64.38
72126;SHT31;59999;51.676;22.650;2023-02-28T00:52:47;-0.84;64.95
72126;SHT31;59999;51.676;22.650;2023-02-28T00:55:13;-0.86;65.48
72126;SHT31;59999;51.676;22.650;2023-02-28T00:57:39;-0.84;64.71
72126;SHT31;59999;51.676;22.650;2023-02-28T01:00:06;-0.86;64.42
72126;SHT31;59999;51.676;22.650;2023-02-28T01:02:33;-0.95;64.37
72126;SHT31;59999;51.676;22.650;2023-02-28T01:04:59;-0.96;65.17
72126;SHT31;59999;51.676;22.650;2023-02-28T01:07:25;-0.95;65.03
72126;SHT31;59999;51.676;22.650;2023-02-28T01:09:51;-0.95;65.09
72126;SHT31;59999;51.676;22.650;2023-02-28T01:12:17;-0.97;63.15
72126;SHT31;59999;51.676;22.650;2023-02-28T01:14:42;-1.02;63.16
72126;SHT31;59999;51.676;22.650;2023-02-28T01:17:09;-1.05;63.36
72126;SHT31;59999;51.676;22.650;2023-02-28T01:19:35;-1.05;63.51
72126;SHT31;59999;51.676;22.650;2023-02-28T01:22:02;-1.00;63.72
72126;SHT31;59999;51.676;22.650;2023-02-28T01:24:28;-0.95;63.51
72126;SHT31;59999;51.676;22.650;2023-02-28T01:26:54;-0.95;63.81
72126;SHT31;59999;51.676;22.650;2023-02-28T01:29:20;-0.88;63.97
72126;SHT31;59999;51.676;22.650;2023-02-28T01:31:46;-0.88;64.60
72126;SHT31;59999;51.676;22.650;2023-02-28T01:34:12;-0.88;65.26
72126;SHT31;59999;51.676;22.650;2023-02-28T01:36:38;-0.85;65.25
72126;SHT31;59999;51.676;22.650;2023-02-28T01:39:04;-0.91;64.63
72126;SHT31;59999;51.676;22.650;2023-02-28T01:41:33;-0.91;64.73
72126;SHT31;59999;51.676;22.650;2023-02-28T01:44:05;-0.92;64.62
72126;SHT31;59999;51.676;22.650;2023-02-28T01:46:34;-0.97;64.18
72126;SHT31;59999;51.676;22.650;2023-02-28T01:49:13;-1.03;65.05
72126;SHT31;59999;51.676;22.650;2023-02-28T01:51:44;-1.05;65.52
72126;SHT31;59999;51.676;22.650;2023-02-28T01:54:15;-1.02;65.72
72126;SHT31;59999;51.676;22.650;2023-02-28T01:57:10;-1.00;65.65
72126;SHT31;59999;51.676;22.650;2023-02-28T01:59:43;-1.02;64.75
72126;SHT31;59999;51.676;22.650;2023-02-28T02:02:21;-0.99;65.58
72126;SHT31;59999;51.676;22.650;2023-02-28T02:04:58;-1.00;66.19
72126;SHT31;59999;51.676;22.650;2023-02-28T02:07:29;-1.00;65.99
72126;SHT31;59999;51.676;22.650;2023-02-28T02:10:17;-0.99;65.92
72126;SHT31;59999;51.676;22.650;2023-02-28T02:32:44;-1.13;65.76
72126;SHT31;59999;51.676;22.650;2023-02-28T02:35:27;-1.20;66.11
72126;SHT31;59999;51.676;22.650;2023-02-28T02:40:40;-1.26;63.92
72126;SHT31;59999;51.676;22.650;2023-02-28T02:43:25;-1.21;64.30
72126;SHT31;59999;51.676;22.650;2023-02-28T02:46:26;-1.19;64.61
72126;SHT31;59999;51.676;22.650;2023-02-28T02:48:56;-1.16;64.93
72126;SHT31;59999;51.676;22.650;2023-02-28T02:51:24;-1.14;65.98
72126;SHT31;59999;51.676;22.650;2023-02-28T02:53:55;-1.14;66.56
72126;SHT31;59999;51.676;22.650;2023-02-28T02:56:26;-1.14;66.95
72126;SHT31;59999;51.676;22.650;2023-02-28T02:58:57;-1.16;66.08
72126;SHT31;59999;51.676;22.650;2023-02-28T03:01:25;-1.21;65.59
72126;SHT31;59999;51.676;22.650;2023-02-28T03:03:57;-1.26;64.75
72126;SHT31;59999;51.676;22.650;2023-02-28T03:06:25;-1.29;64.86
72126;SHT31;59999;51.676;22.650;2023-02-28T03:08:50;-1.30;65.26
72126;SHT31;59999;51.676;22.650;2023-02-28T03:11:16;-1.32;65.27
72126;SHT31;59999;51.676;22.650;2023-02-28T03:14:04;-1.36;64.31
72126;SHT31;59999;51.676;22.650;2023-02-28T03:25:17;-1.30;66.10
72126;SHT31;59999;51.676;22.650;2023-02-28T03:30:36;-1.29;66.69
72126;SHT31;59999;51.676;22.650;2023-02-28T03:33:17;-1.29;66.96
72126;SHT31;59999;51.676;22.650;2023-02-28T03:35:51;-1.26;67.04
72126;SHT31;59999;51.676;22.650;2023-02-28T03:41:01;-1.27;67.21
72126;SHT31;59999;51.676;22.650;2023-02-28T03:43:32;-1.27;66.65
72126;SHT31;59999;51.676;22.650;2023-02-28T03:46:02;-1.30;67.01
72126;SHT31;59999;51.676;22.650;2023-02-28T03:48:38;-1.33;66.83
72126;SHT31;59999;51.676;22.650;2023-02-28T03:51:08;-1.36;66.22
72126;SHT31;59999;51.676;22.650;2023-02-28T03:53:44;-1.36;66.56
72126;SHT31;59999;51.676;22.650;2023-02-28T03:56:31;-1.40;67.21
72126;SHT31;59999;51.676;22.650;2023-02-28T04:01:35;-1.39;65.32
72126;SHT31;59999;51.676;22.650;2023-02-28T04:04:02;-1.40;65.03
72126;SHT31;59999;51.676;22.650;2023-02-28T04:06:31;-1.39;65.58
72126;SHT31;59999;51.676;22.650;2023-02-28T04:08:57;-1.42;65.69
72126;SHT31;59999;51.676;22.650;2023-02-28T04:11:41;-1.43;65.69
72126;SHT31;59999;51.676;22.650;2023-02-28T04:14:09;-1.42;65.82
72126;SHT31;59999;51.676;22.650;2023-02-28T04:16:38;-1.43;66.22
72126;SHT31;59999;51.676;22.650;2023-02-28T04:19:05;-1.42;66.48
72126;SHT31;59999;51.676;22.650;2023-02-28T04:21:42;-1.40;66.55
72126;SHT31;59999;51.676;22.650;2023-02-28T04:24:14;-1.40;66.82
72126;SHT31;59999;51.676;22.650;2023-02-28T04:26:43;-1.42;67.14
72126;SHT31;59999;51.676;22.650;2023-02-28T04:29:14;-1.39;67.17
72126;SHT31;59999;51.676;22.650;2023-02-28T04:31:40;-1.40;65.71
72126;SHT31;59999;51.676;22.650;2023-02-28T04:34:06;-1.43;66.19
72126;SHT31;59999;51.676;22.650;2023-02-28T04:36:32;-1.43;66.56
72126;SHT31;59999;51.676;22.650;2023-02-28T04:38:58;-1.47;66.85
72126;SHT31;59999;51.676;22.650;2023-02-28T04:41:24;-1.48;67.10
72126;SHT31;59999;51.676;22.650;2023-02-28T04:43:53;-1.57;67.15
72126;SHT31;59999;51.676;22.650;2023-02-28T04:46:19;-1.70;67.73
72126;SHT31;59999;51.676;22.650;2023-02-28T04:48:45;-1.78;68.11
72126;SHT31;59999;51.676;22.650;2023-02-28T04:51:13;-1.89;68.33
72126;SHT31;59999;51.676;22.650;2023-02-28T04:53:40;-1.93;68.44
72126;SHT31;59999;51.676;22.650;2023-02-28T04:56:08;-1.98;69.07
72126;SHT31;59999;51.676;22.650;2023-02-28T04:58:34;-2.06;68.81
72126;SHT31;59999;51.676;22.650;2023-02-28T05:01:26;-2.12;68.89
72126;SHT31;59999;51.676;22.650;2023-02-28T05:03:52;-2.19;69.03
72126;SHT31;59999;51.676;22.650;2023-02-28T05:06:19;-2.28;69.16
72126;SHT31;59999;51.676;22.650;2023-02-28T05:08:46;-2.33;69.19
72126;SHT31;59999;51.676;22.650;2023-02-28T05:11:21;-2.40;69.50
72126;SHT31;59999;51.676;22.650;2023-02-28T05:13:49;-2.44;69.51
72126;SHT31;59999;51.676;22.650;2023-02-28T05:16:15;-2.47;69.49
72126;SHT31;59999;51.676;22.650;2023-02-28T05:18:42;-2.50;69.88
72126;SHT31;59999;51.676;22.650;2023-02-28T05:23:51;-2.57;70.18
72126;SHT31;59999;51.676;22.650;2023-02-28T05:26:18;-2.60;70.37
72126;SHT31;59999;51.676;22.650;2023-02-28T05:28:44;-2.61;70.60
72126;SHT31;59999;51.676;22.650;2023-02-28T05:31:12;-2.61;70.80
72126;SHT31;59999;51.676;22.650;2023-02-28T05:33:39;-2.65;71.18
72126;SHT31;59999;51.676;22.650;2023-02-28T05:36:05;-2.64;71.48
72126;SHT31;59999;51.676;22.650;2023-02-28T05:38:32;-2.65;71.93
72126;SHT31;59999;51.676;22.650;2023-02-28T05:40:58;-2.68;72.25
72126;SHT31;59999;51.676;22.650;2023-02-28T05:43:24;-2.68;72.54
72126;SHT31;59999;51.676;22.650;2023-02-28T05:45:50;-2.71;72.40
72126;SHT31;59999;51.676;22.650;2023-02-28T05:48:16;-2.77;72.38
72126;SHT31;59999;51.676;22.650;2023-02-28T05:50:43;-2.75;73.10
72126;SHT31;59999;51.676;22.650;2023-02-28T05:53:11;-2.78;72.98
72126;SHT31;59999;51.676;22.650;2023-02-28T05:55:37;-2.75;73.18
72126;SHT31;59999;51.676;22.650;2023-02-28T05:58:03;-2.74;74.49
72126;SHT31;59999;51.676;22.650;2023-02-28T06:00:29;-2.77;75.43
72126;SHT31;59999;51.676;22.650;2023-02-28T06:02:55;-2.75;74.66
72126;SHT31;59999;51.676;22.650;2023-02-28T06:05:23;-2.70;73.80
72126;SHT31;59999;51.676;22.650;2023-02-28T06:07:50;-2.61;73.37
72126;SHT31;59999;51.676;22.650;2023-02-28T06:10:16;-2.53;73.11
72126;SHT31;59999;51.676;22.650;2023-02-28T06:12:42;-2.46;73.08
72126;SHT31;59999;51.676;22.650;2023-02-28T06:15:17;-2.33;72.34
72126;SHT31;59999;51.676;22.650;2023-02-28T06:17:44;-2.29;72.20
72126;SHT31;59999;51.676;22.650;2023-02-28T06:20:11;-2.19;72.14
72126;SHT31;59999;51.676;22.650;2023-02-28T06:22:39;-2.12;72.18
72126;SHT31;59999;51.676;22.650;2023-02-28T06:25:06;-1.99;72.27
72126;SHT31;59999;51.676;22.650;2023-02-28T06:27:33;-1.93;70.72
72126;SHT31;59999;51.676;22.650;2023-02-28T06:29:59;-1.86;70.68
72126;SHT31;59999;51.676;22.650;2023-02-28T06:32:25;-1.84;71.34
72126;SHT31;59999;51.676;22.650;2023-02-28T06:34:51;-1.72;70.99
72126;SHT31;59999;51.676;22.650;2023-02-28T06:37:18;-1.65;69.35
72126;SHT31;59999;51.676;22.650;2023-02-28T06:39:44;-1.55;68.75
72126;SHT31;59999;51.676;22.650;2023-02-28T06:42:10;-1.48;67.16
72126;SHT31;59999;51.676;22.650;2023-02-28T06:44:36;-1.44;66.71
72126;SHT31;59999;51.676;22.650;2023-02-28T06:47:03;-1.36;66.71
72126;SHT31;59999;51.676;22.650;2023-02-28T06:49:30;-1.26;65.85
72126;SHT31;59999;51.676;22.650;2023-02-28T06:51:57;-1.23;65.14
72126;SHT31;59999;51.676;22.650;2023-02-28T06:54:23;-1.20;64.98
72126;SHT31;59999;51.676;22.650;2023-02-28T06:56:49;-1.19;66.44
72126;SHT31;59999;51.676;22.650;2023-02-28T06:59:15;-1.10;65.21
72126;SHT31;59999;51.676;22.650;2023-02-28T07:01:42;-1.02;65.06
72126;SHT31;59999;51.676;22.650;2023-02-28T07:04:08;-1.00;65.12
72126;SHT31;59999;51.676;22.650;2023-02-28T07:06:34;-0.99;64.22
72126;SHT31;59999;51.676;22.650;2023-02-28T07:09:00;-0.93;64.41
72126;SHT31;59999;51.676;22.650;2023-02-28T07:11:27;-0.95;63.98
72126;SHT31;59999;51.676;22.650;2023-02-28T07:13:54;-0.88;64.59
72126;SHT31;59999;51.676;22.650;2023-02-28T07:16:21;-0.81;64.36
72126;SHT31;59999;51.676;22.650;2023-02-28T07:18:48;-0.68;64.53
72126;SHT31;59999;51.676;22.650;2023-02-28T07:21:15;-0.58;64.13
72126;SHT31;59999;51.676;22.650;2023-02-28T07:23:41;-0.53;62.79
72126;SHT31;59999;51.676;22.650;2023-02-28T07:26:12;-0.57;62.34
72126;SHT31;59999;51.676;22.650;2023-02-28T07:28:41;-0.54;63.11
72126;SHT31;59999;51.676;22.650;2023-02-28T07:31:08;-0.42;62.43
72126;SHT31;59999;51.676;22.650;2023-02-28T07:33:35;-0.31;61.79
72126;SHT31;59999;51.676;22.650;2023-02-28T07:36:07;-0.24;61.58
72126;SHT31;59999;51.676;22.650;2023-02-28T07:38:35;-0.20;61.80
72126;SHT31;59999;51.676;22.650;2023-02-28T07:41:02;-0.16;60.93
72126;SHT31;59999;51.676;22.650;2023-02-28T07:43:32;-0.02;60.83
72126;SHT31;59999;51.676;22.650;2023-02-28T07:46:06;0.07;61.12
72126;SHT31;59999;51.676;22.650;2023-02-28T07:48:33;0.15;59.98
72126;SHT31;59999;51.676;22.650;2023-02-28T07:51:00;0.25;60.87
72126;SHT31;59999;51.676;22.650;2023-02-28T07:53:26;0.35;59.70
72126;SHT31;59999;51.676;22.650;2023-02-28T07:56:00;0.24;59.69
72126;SHT31;59999;51.676;22.650;2023-02-28T07:58:27;0.13;59.39
72126;SHT31;59999;51.676;22.650;2023-02-28T08:00:53;0.13;59.65
72126;SHT31;59999;51.676;22.650;2023-02-28T08:03:21;0.17;58.97
72126;SHT31;59999;51.676;22.650;2023-02-28T08:05:48;0.21;59.25
72126;SHT31;59999;51.676;22.650;2023-02-28T08:08:15;0.26;59.43
72126;SHT31;59999;51.676;22.650;2023-02-28T08:10:41;0.35;59.53
72126;SHT31;59999;51.676;22.650;2023-02-28T08:13:07;0.34;59.24
72126;SHT31;59999;51.676;22.650;2023-02-28T08:15:33;0.40;60.13
72126;SHT31;59999;51.676;22.650;2023-02-28T08:17:59;0.48;59.51
72126;SHT31;59999;51.676;22.650;2023-02-28T08:20:26;0.55;59.41
72126;SHT31;59999;51.676;22.650;2023-02-28T08:22:52;0.40;59.06
72126;SHT31;59999;51.676;22.650;2023-02-28T08:25:18;0.38;60.16
72126;SHT31;59999;51.676;22.650;2023-02-28T08:27:44;0.46;59.73
72126;SHT31;59999;51.676;22.650;2023-02-28T08:30:11;0.56;60.11
72126;SHT31;59999;51.676;22.650;2023-02-28T08:32:38;0.69;59.93
72126;SHT31;59999;51.676;22.650;2023-02-28T08:35:05;0.80;60.22
72126;SHT31;59999;51.676;22.650;2023-02-28T08:37:31;0.70;58.38
72126;SHT31;59999;51.676;22.650;2023-02-28T08:39:57;0.59;59.58
72126;SHT31;59999;51.676;22.650;2023-02-28T08:42:23;0.68;58.82
72126;SHT31;59999;51.676;22.650;2023-02-28T08:44:50;0.80;57.94
72126;SHT31;59999;51.676;22.650;2023-02-28T08:47:16;0.82;58.15
72126;SHT31;59999;51.676;22.650;2023-02-28T08:49:42;0.89;58.00
72126;SHT31;59999;51.676;22.650;2023-02-28T08:52:08;1.00;58.28
72126;SHT31;59999;51.676;22.650;2023-02-28T08:54:35;0.97;58.72
72126;SHT31;59999;51.676;22.650;2023-02-28T08:57:02;0.91;57.46
72126;SHT31;59999;51.676;22.650;2023-02-28T08:59:29;0.84;57.59
72126;SHT31;59999;51.676;22.650;2023-02-28T09:01:55;0.75;57.56
72126;SHT31;59999;51.676;22.650;2023-02-28T09:04:21;0.63;58.04
72126;SHT31;59999;51.676;22.650;2023-02-28T09:06:47;0.63;58.50
72126;SHT31;59999;51.676;22.650;2023-02-28T09:09:15;0.72;58.37
72126;SHT31;59999;51.676;22.650;2023-02-28T09:11:41;0.84;58.51
72126;SHT31;59999;51.676;22.650;2023-02-28T09:14:07;1.00;58.64
72126;SHT31;59999;51.676;22.650;2023-02-28T09:16:34;1.13;57.10
72126;SHT31;59999;51.676;22.650;2023-02-28T09:19:01;1.26;57.31
72126;SHT31;59999;51.676;22.650;2023-02-28T09:21:27;1.28;57.47
72126;SHT31;59999;51.676;22.650;2023-02-28T09:23:53;1.30;56.80
72126;SHT31;59999;51.676;22.650;2023-02-28T09:26:24;1.32;57.52
72126;SHT31;59999;51.676;22.650;2023-02-28T09:28:51;1.31;56.44
72126;SHT31;59999;51.676;22.650;2023-02-28T09:31:23;1.28;56.81
72126;SHT31;59999;51.676;22.650;2023-02-28T09:33:52;1.20;57.60
72126;SHT31;59999;51.676;22.650;2023-02-28T09:36:19;1.31;58.73
72126;SHT31;59999;51.676;22.650;2023-02-28T09:38:45;1.42;58.29
72126;SHT31;59999;51.676;22.650;2023-02-28T09:41:37;1.47;57.69
72126;SHT31;59999;51.676;22.650;2023-02-28T09:44:07;1.48;57.20
72126;SHT31;59999;51.676;22.650;2023-02-28T09:46:47;1.40;57.22
72126;SHT31;59999;51.676;22.650;2023-02-28T09:49:17;1.41;57.09
72126;SHT31;59999;51.676;22.650;2023-02-28T09:51:50;1.56;57.57
72126;SHT31;59999;51.676;22.650;2023-02-28T09:54:19;1.63;56.59
72126;SHT31;59999;51.676;22.650;2023-02-28T09:56:50;1.78;56.38
72126;SHT31;59999;51.676;22.650;2023-02-28T09:59:30;1.99;56.97
72126;SHT31;59999;51.676;22.650;2023-02-28T10:05:00;1.68;54.71
72126;SHT31;59999;51.676;22.650;2023-02-28T10:10:33;1.49;56.02
72126;SHT31;59999;51.676;22.650;2023-02-28T10:13:04;1.49;56.32
72126;SHT31;59999;51.676;22.650;2023-02-28T10:15:33;1.65;56.49
72126;SHT31;59999;51.676;22.650;2023-02-28T10:18:04;1.80;55.64
72126;SHT31;59999;51.676;22.650;2023-02-28T10:20:34;1.86;55.46
72126;SHT31;59999;51.676;22.650;2023-02-28T10:25:39;2.09;55.08
72126;SHT31;59999;51.676;22.650;2023-02-28T10:28:11;2.20;55.04
72126;SHT31;59999;51.676;22.650;2023-02-28T10:30:41;2.27;54.60
72126;SHT31;59999;51.676;22.650;2023-02-28T10:33:17;2.37;54.97
72126;SHT31;59999;51.676;22.650;2023-02-28T10:35:45;2.42;54.48
72126;SHT31;59999;51.676;22.650;2023-02-28T10:38:17;2.37;54.35
72126;SHT31;59999;51.676;22.650;2023-02-28T10:40:44;2.42;53.61
72126;SHT31;59999;51.676;22.650;2023-02-28T10:46:13;2.62;52.58
72126;SHT31;59999;51.676;22.650;2023-02-28T10:49:00;2.76;53.30
72126;SHT31;59999;51.676;22.650;2023-02-28T10:51:37;2.85;53.12
72126;SHT31;59999;51.676;22.650;2023-02-28T10:54:03;2.95;53.39
72126;SHT31;59999;51.676;22.650;2023-02-28T10:56:31;3.06;54.13
72126;SHT31;59999;51.676;22.650;2023-02-28T11:01:43;2.74;52.40
72126;SHT31;59999;51.676;22.650;2023-02-28T11:09:46;2.54;53.60
72126;SHT31;59999;51.676;22.650;2023-02-28T11:12:22;2.57;55.13
72126;SHT31;59999;51.676;22.650;2023-02-28T11:14:51;2.41;54.37
72126;SHT31;59999;51.676;22.650;2023-02-28T11:17:27;2.24;55.07
72126;SHT31;59999;51.676;22.650;2023-02-28T11:20:05;2.11;54.65
72126;SHT31;59999;51.676;22.650;2023-02-28T11:22:37;2.00;56.20
72126;SHT31;59999;51.676;22.650;2023-02-28T11:25:25;1.95;55.47
72126;SHT31;59999;51.676;22.650;2023-02-28T11:27:57;2.00;56.85
72126;SHT31;59999;51.676;22.650;2023-02-28T11:30:36;2.13;55.80
72126;SHT31;59999;51.676;22.650;2023-02-28T11:33:22;2.30;54.05
72126;SHT31;59999;51.676;22.650;2023-02-28T11:35:49;2.26;54.04
72126;SHT31;59999;51.676;22.650;2023-02-28T11:38:16;2.38;54.23
72126;SHT31;59999;51.676;22.650;2023-02-28T11:51:34;2.61;53.55
72126;SHT31;59999;51.676;22.650;2023-02-28T11:57:00;2.71;54.00
72126;SHT31;59999;51.676;22.650;2023-02-28T11:59:35;2.74;54.38
72126;SHT31;59999;51.676;22.650;2023-02-28T12:07:43;2.75;53.33
72126;SHT31;59999;51.676;22.650;2023-02-28T12:10:26;2.89;54.76
72126;SHT31;59999;51.676;22.650;2023-02-28T12:15:27;3.02;52.97
72126;SHT31;59999;51.676;22.650;2023-02-28T12:29:30;3.19;54.27
72126;SHT31;59999;51.676;22.650;2023-02-28T12:31:54;3.15;54.87
72126;SHT31;59999;51.676;22.650;2023-02-28T12:34:26;3.13;53.74
72126;SHT31;59999;51.676;22.650;2023-02-28T12:36:55;3.10;54.53
72126;SHT31;59999;51.676;22.650;2023-02-28T12:39:26;3.00;54.40
72126;SHT31;59999;51.676;22.650;2023-02-28T12:41:59;3.10;54.74
72126;SHT31;59999;51.676;22.650;2023-02-28T12:44:32;3.13;53.54
72126;SHT31;59999;51.676;22.650;2023-02-28T12:47:15;3.23;53.79
72126;SHT31;59999;51.676;22.650;2023-02-28T12:49:48;3.27;53.83
72126;SHT31;59999;51.676;22.650;2023-02-28T12:52:23;3.36;53.60
72126;SHT31;59999;51.676;22.650;2023-02-28T12:55:01;3.28;54.15
72126;SHT31;59999;51.676;22.650;2023-02-28T12:57:43;3.34;54.36
72126;SHT31;59999;51.676;22.650;2023-02-28T13:00:13;3.44;54.42
72126;SHT31;59999;51.676;22.650;2023-02-28T13:03:12;3.47;53.86
72126;SHT31;59999;51.676;22.650;2023-02-28T13:06:12;3.46;54.78
72126;SHT31;59999;51.676;22.650;2023-02-28T13:14:04;3.46;52.75
72126;SHT31;59999;51.676;22.650;2023-02-28T13:19:35;3.40;53.39
72126;SHT31;59999;51.676;22.650;2023-02-28T13:22:02;3.40;54.11
72126;SHT31;59999;51.676;22.650;2023-02-28T13:29:38;3.51;54.89
72126;SHT31;59999;51.676;22.650;2023-02-28T13:37:32;3.70;54.23
72126;SHT31;59999;51.676;22.650;2023-02-28T13:42:46;3.68;53.09
72126;SHT31;59999;51.676;22.650;2023-02-28T13:47:45;3.65;54.92
72126;SHT31;59999;51.676;22.650;2023-02-28T14:06:47;3.28;54.15
72126;SHT31;59999;51.676;22.650;2023-02-28T14:09:24;3.24;55.09
72126;SHT31;59999;51.676;22.650;2023-02-28T14:11:51;3.22;54.86
72126;SHT31;59999;51.676;22.650;2023-02-28T14:17:03;3.09;55.36
72126;SHT31;59999;51.676;22.650;2023-02-28T14:19:32;3.03;55.78
72126;SHT31;59999;51.676;22.650;2023-02-28T14:25:15;2.85;56.74
72126;SHT31;59999;51.676;22.650;2023-02-28T14:33:59;2.84;57.18
72126;SHT31;59999;51.676;22.650;2023-02-28T14:36:33;2.79;56.91
72126;SHT31;59999;51.676;22.650;2023-02-28T14:39:22;2.82;58.38
72126;SHT31;59999;51.676;22.650;2023-02-28T14:41:48;2.81;57.71
72126;SHT31;59999;51.676;22.650;2023-02-28T14:44:18;2.75;56.24
72126;SHT31;59999;51.676;22.650;2023-02-28T14:46:47;2.69;56.89
72126;SHT31;59999;51.676;22.650;2023-02-28T14:52:12;2.65;57.90
72126;SHT31;59999;51.676;22.650;2023-02-28T14:54:41;2.52;58.50
72126;SHT31;59999;51.676;22.650;2023-02-28T14:57:30;2.42;58.35
72126;SHT31;59999;51.676;22.650;2023-02-28T15:00:14;2.33;59.12
72126;SHT31;59999;51.676;22.650;2023-02-28T15:02:40;2.33;59.56
72126;SHT31;59999;51.676;22.650;2023-02-28T15:05:16;2.36;59.41
72126;SHT31;59999;51.676;22.650;2023-02-28T15:07:45;2.36;59.83
72126;SHT31;59999;51.676;22.650;2023-02-28T15:10:22;2.38;59.52
72126;SHT31;59999;51.676;22.650;2023-02-28T15:13:21;2.48;59.62
72126;SHT31;59999;51.676;22.650;2023-02-28T15:15:57;2.58;59.54
72126;SHT31;59999;51.676;22.650;2023-02-28T15:18:28;2.68;58.91
72126;SHT31;59999;51.676;22.650;2023-02-28T15:21:07;2.71;58.54
72126;SHT31;59999;51.676;22.650;2023-02-28T15:23:35;2.75;59.04
72126;SHT31;59999;51.676;22.650;2023-02-28T15:26:02;2.84;59.25
72126;SHT31;59999;51.676;22.650;2023-02-28T15:28:29;2.88;58.70
72126;SHT31;59999;51.676;22.650;2023-02-28T15:31:01;2.97;59.31
72126;SHT31;59999;51.676;22.650;2023-02-28T15:33:32;3.05;59.11
72126;SHT31;59999;51.676;22.650;2023-02-28T15:36:26;3.07;58.39
72126;SHT31;59999;51.676;22.650;2023-02-28T15:38:54;2.95;58.86
72126;SHT31;59999;51.676;22.650;2023-02-28T15:41:35;2.74;59.46
72126;SHT31;59999;51.676;22.650;2023-02-28T15:44:28;2.51;59.91
72126;SHT31;59999;51.676;22.650;2023-02-28T15:47:12;2.30;60.07
72126;SHT31;59999;51.676;22.650;2023-02-28T15:49:46;2.13;60.65
72126;SHT31;59999;51.676;22.650;2023-02-28T15:52:16;1.93;61.29
72126;SHT31;59999;51.676;22.650;2023-02-28T15:54:43;1.80;61.82
72126;SHT31;59999;51.676;22.650;2023-02-28T15:57:19;1.68;62.35
72126;SHT31;59999;51.676;22.650;2023-02-28T16:00:06;1.52;62.88
72126;SHT31;59999;51.676;22.650;2023-02-28T16:02:36;1.37;63.45
72126;SHT31;59999;51.676;22.650;2023-02-28T16:07:38;1.16;64.61
72126;SHT31;59999;51.676;22.650;2023-02-28T16:10:06;1.03;65.08
72126;SHT31;59999;51.676;22.650;2023-02-28T16:12:34;0.94;65.41
72126;SHT31;59999;51.676;22.650;2023-02-28T16:15:07;0.86;65.89
72126;SHT31;59999;51.676;22.650;2023-02-28T16:17:35;0.79;66.38
72126;SHT31;59999;51.676;22.650;2023-02-28T16:20:13;0.68;66.76
72126;SHT31;59999;51.676;22.650;2023-02-28T16:22:39;0.62;67.19
72126;SHT31;59999;51.676;22.650;2023-02-28T16:25:11;0.53;68.16
72126;SHT31;59999;51.676;22.650;2023-02-28T16:27:38;0.44;68.88
72126;SHT31;59999;51.676;22.650;2023-02-28T16:30:15;0.35;69.25
72126;SHT31;59999;51.676;22.650;2023-02-28T16:32:41;0.26;69.53
72126;SHT31;59999;51.676;22.650;2023-02-28T16:35:10;0.21;69.74
72126;SHT31;59999;51.676;22.650;2023-02-28T16:37:36;0.14;70.22
72126;SHT31;59999;51.676;22.650;2023-02-28T16:40:03;0.07;70.34
72126;SHT31;59999;51.676;22.650;2023-02-28T16:42:30;0.01;70.51
72126;SHT31;59999;51.676;22.650;2023-02-28T16:44:57;-0.09;70.60
72126;SHT31;59999;51.676;22.650;2023-02-28T16:47:24;-0.14;70.74
72126;SHT31;59999;51.676;22.650;2023-02-28T16:49:52;-0.23;70.80
72126;SHT31;59999;51.676;22.650;2023-02-28T16:52:18;-0.33;71.06
72126;SHT31;59999;51.676;22.650;2023-02-28T16:54:44;-0.41;71.83
72126;SHT31;59999;51.676;22.650;2023-02-28T16:57:19;-0.50;72.50
72126;SHT31;59999;51.676;22.650;2023-02-28T16:59:47;-0.54;72.59
72126;SHT31;59999;51.676;22.650;2023-02-28T17:02:17;-0.54;72.66
72126;SHT31;59999;51.676;22.650;2023-02-28T17:04:45;-0.54;72.56
72126;SHT31;59999;51.676;22.650;2023-02-28T17:07:13;-0.55;72.47
72126;SHT31;59999;51.676;22.650;2023-02-28T17:09:39;-0.60;72.46
72126;SHT31;59999;51.676;22.650;2023-02-28T17:12:06;-0.61;72.77
72126;SHT31;59999;51.676;22.650;2023-02-28T17:14:33;-0.65;72.99
72126;SHT31;59999;51.676;22.650;2023-02-28T17:16:59;-0.71;73.02
72126;SHT31;59999;51.676;22.650;2023-02-28T17:19:25;-0.76;73.85
72126;SHT31;59999;51.676;22.650;2023-02-28T17:21:51;-0.76;75.10
72126;SHT31;59999;51.676;22.650;2023-02-28T17:24:17;-0.84;75.44
72126;SHT31;59999;51.676;22.650;2023-02-28T17:26:43;-0.86;76.08
72126;SHT31;59999;51.676;22.650;2023-02-28T17:29:20;-0.95;76.02
72126;SHT31;59999;51.676;22.650;2023-02-28T17:31:46;-1.00;76.00
72126;SHT31;59999;51.676;22.650;2023-02-28T17:34:12;-1.02;75.97
72126;SHT31;59999;51.676;22.650;2023-02-28T17:36:45;-1.05;75.85
72126;SHT31;59999;51.676;22.650;2023-02-28T17:39:13;-1.05;75.77
72126;SHT31;59999;51.676;22.650;2023-02-28T17:41:47;-1.05;75.72
72126;SHT31;59999;51.676;22.650;2023-02-28T17:44:13;-1.09;75.74
72126;SHT31;59999;51.676;22.650;2023-02-28T17:46:39;-1.12;76.07
72126;SHT31;59999;51.676;22.650;2023-02-28T17:49:05;-1.12;76.09
72126;SHT31;59999;51.676;22.650;2023-02-28T17:51:31;-1.13;76.23
72126;SHT31;59999;51.676;22.650;2023-02-28T17:53:57;-1.14;76.24
72126;SHT31;59999;51.676;22.650;2023-02-28T17:56:24;-1.20;76.33
72126;SHT31;59999;51.676;22.650;2023-02-28T17:58:52;-1.21;76.44
72126;SHT31;59999;51.676;22.650;2023-02-28T18:01:20;-1.26;76.69
72126;SHT31;59999;51.676;22.650;2023-02-28T18:03:47;-1.29;76.77
72126;SHT31;59999;51.676;22.650;2023-02-28T18:06:16;-1.29;76.89
72126;SHT31;59999;51.676;22.650;2023-02-28T18:08:42;-1.32;76.91
72126;SHT31;59999;51.676;22.650;2023-02-28T18:11:08;-1.37;76.86
72126;SHT31;59999;51.676;22.650;2023-02-28T18:13:52;-1.37;76.85